createdAt,value
2022-09-21T00:01:28.996Z,10.03
2022-09-21T00:04:00.966Z,9.43
2022-09-21T00:06:32.128Z,12.03
2022-09-21T00:08:59.709Z,9.17
2022-09-21T00:11:29.897Z,9.43
2022-09-21T00:14:04.421Z,10.77
2022-09-21T00:16:35.076Z,10.70
2022-09-21T00:19:02.415Z,12.00
2022-09-21T00:21:29.713Z,9.20
2022-09-21T00:23:57.185Z,8.50
2022-09-21T00:26:27.140Z,9.23
2022-09-21T00:28:57.588Z,6.87
2022-09-21T00:31:25.773Z,10.40
2022-09-21T00:33:53.968Z,7.13
2022-09-21T00:36:24.679Z,8.27
2022-09-21T00:38:59.080Z,9.40
2022-09-21T00:41:28.375Z,12.23
2022-09-21T00:44:25.504Z,11.60
2022-09-21T00:46:56.351Z,11.50
2022-09-21T00:49:25.123Z,11.30
2022-09-21T00:51:53.356Z,13.17
2022-09-21T00:54:30.543Z,12.77
2022-09-21T00:57:01.403Z,12.80
2022-09-21T00:59:31.213Z,11.17
2022-09-21T01:02:00.032Z,15.10
2022-09-21T01:04:28.446Z,11.60
2022-09-21T01:07:00.183Z,9.07
2022-09-21T01:09:28.224Z,13.40
2022-09-21T01:12:30.747Z,7.57
2022-09-21T01:15:26.739Z,8.20
2022-09-21T01:18:12.994Z,8.50
2022-09-21T01:21:26.660Z,9.43
2022-09-21T01:24:03.065Z,14.10
2022-09-21T01:27:01.774Z,9.53
2022-09-21T01:29:33.373Z,8.67
2022-09-21T01:32:09.330Z,8.77
2022-09-21T01:35:03.914Z,10.30
2022-09-21T01:38:09.065Z,8.50
2022-09-21T01:40:44.150Z,9.60
2022-09-21T01:43:18.194Z,9.57
2022-09-21T01:45:50.531Z,7.47
2022-09-21T01:48:22.357Z,7.30
2022-09-21T01:50:54.448Z,11.07
2022-09-21T01:53:38.273Z,10.83
2022-09-21T01:56:25.781Z,13.20
2022-09-21T01:59:08.570Z,11.47
2022-09-21T02:02:00.683Z,10.37
2022-09-21T02:04:27.958Z,11.37
2022-09-21T02:06:55.756Z,11.10
2022-09-21T02:09:24.183Z,10.53
2022-09-21T02:11:51.111Z,10.83
2022-09-21T02:14:24.089Z,9.80
2022-09-21T02:17:25.088Z,9.83
2022-09-21T02:20:19.565Z,9.43
2022-09-21T02:23:09.182Z,11.87
2022-09-21T02:25:47.917Z,13.27
2022-09-21T02:28:51.308Z,11.20
2022-09-21T02:31:50.256Z,13.20
2022-09-21T02:35:16.348Z,10.27
2022-09-21T02:38:16.825Z,10.30
2022-09-21T02:40:55.083Z,10.67
2022-09-21T02:43:32.301Z,10.70
2022-09-21T02:46:19.160Z,12.67
2022-09-21T02:48:57.069Z,13.40
2022-09-21T02:51:44.181Z,9.47
2022-09-21T02:54:17.748Z,8.67
2022-09-21T02:56:48.849Z,10.27
2022-09-21T02:59:18.941Z,10.97
2022-09-21T03:01:45.958Z,8.13
2022-09-21T03:04:13.068Z,6.93
2022-09-21T03:06:41.488Z,8.03
2022-09-21T03:09:09.256Z,6.57
2022-09-21T03:11:36.220Z,9.20
2022-09-21T03:14:08.519Z,6.20
2022-09-21T03:16:39.166Z,6.40
2022-09-21T03:19:06.410Z,8.50
2022-09-21T03:21:33.408Z,5.90
2022-09-21T03:24:00.317Z,6.60
2022-09-21T03:26:27.238Z,6.97
2022-09-21T03:28:54.891Z,7.87
2022-09-21T03:31:22.586Z,8.07
2022-09-21T03:33:49.770Z,9.90
2022-09-21T03:36:16.937Z,8.80
2022-09-21T03:38:44.429Z,11.67
2022-09-21T03:41:11.359Z,10.83
2022-09-21T03:43:38.274Z,9.80
2022-09-21T03:46:05.465Z,14.67
2022-09-21T03:48:32.756Z,11.27
2022-09-21T03:50:59.806Z,9.93
2022-09-21T03:53:26.759Z,10.10
2022-09-21T03:55:53.649Z,12.00
2022-09-21T03:58:22.175Z,13.00
2022-09-21T04:00:49.097Z,13.27
2022-09-21T04:03:15.967Z,13.03
2022-09-21T04:05:42.885Z,13.27
2022-09-21T04:08:10.084Z,13.37
2022-09-21T04:10:37.111Z,9.83
2022-09-21T04:13:04.420Z,9.97
2022-09-21T04:15:31.727Z,11.13
2022-09-21T04:17:59.250Z,12.07
2022-09-21T04:20:27.025Z,11.23
2022-09-21T04:22:54.037Z,10.77
2022-09-21T04:25:21.002Z,12.10
2022-09-21T04:27:48.198Z,9.17
2022-09-21T04:30:16.682Z,11.50
2022-09-21T04:32:44.245Z,13.23
2022-09-21T04:35:11.401Z,10.03
2022-09-21T04:37:38.632Z,12.40
2022-09-21T04:40:07.555Z,10.30
2022-09-21T04:42:34.674Z,12.33
2022-09-21T04:45:01.587Z,12.93
2022-09-21T04:47:31.270Z,10.60
2022-09-21T04:49:58.188Z,10.87
2022-09-21T04:52:25.625Z,11.07
2022-09-21T04:54:53.141Z,11.87
2022-09-21T04:57:20.050Z,13.20
2022-09-21T04:59:47.176Z,10.40
2022-09-21T05:02:14.202Z,10.77
2022-09-21T05:04:41.126Z,14.47
2022-09-21T05:07:08.024Z,12.37
2022-09-21T05:09:53.301Z,12.03
2022-09-21T05:12:20.184Z,20.67
2022-09-21T05:14:47.226Z,18.70
2022-09-21T05:17:14.342Z,16.70
2022-09-21T05:19:41.381Z,14.13
2022-09-21T05:22:08.646Z,18.33
2022-09-21T05:24:35.565Z,12.80
2022-09-21T05:27:02.452Z,14.50
2022-09-21T05:29:29.842Z,14.70
2022-09-21T05:32:12.749Z,12.43
2022-09-21T05:35:09.890Z,14.37
2022-09-21T05:38:17.681Z,15.83
2022-09-21T05:40:47.646Z,14.47
2022-09-21T05:43:15.142Z,13.43
2022-09-21T05:45:47.841Z,15.40
2022-09-21T05:48:22.481Z,16.57
2022-09-21T05:51:09.072Z,14.17
2022-09-21T05:54:11.658Z,15.73
2022-09-21T05:57:03.174Z,13.73
2022-09-21T06:00:05.662Z,13.30
2022-09-21T06:02:53.645Z,14.07
2022-09-21T06:05:21.337Z,24.43
2022-09-21T06:07:48.251Z,21.33
2022-09-21T06:10:16.256Z,22.90
2022-09-21T06:12:43.502Z,17.00
2022-09-21T06:15:14.337Z,22.93
2022-09-21T06:17:41.325Z,40.03
2022-09-21T06:20:09.403Z,41.57
2022-09-21T06:22:36.313Z,29.63
2022-09-21T06:25:03.499Z,25.97
2022-09-21T06:27:30.545Z,24.03
2022-09-21T06:29:57.494Z,26.03
2022-09-21T06:32:24.706Z,20.53
2022-09-21T06:34:51.636Z,21.67
2022-09-21T06:37:18.615Z,25.73
2022-09-21T06:39:45.738Z,21.83
2022-09-21T06:42:14.439Z,24.97
2022-09-21T06:44:41.402Z,25.03
2022-09-21T06:47:08.538Z,22.10
2022-09-21T06:49:39.182Z,20.70
2022-09-21T06:52:08.803Z,24.00
2022-09-21T06:54:36.826Z,22.50
2022-09-21T06:57:03.914Z,20.20
2022-09-21T06:59:31.162Z,21.33
2022-09-21T07:01:58.614Z,30.93
2022-09-21T07:04:25.953Z,21.50
2022-09-21T07:06:53.188Z,22.97
2022-09-21T07:12:08.188Z,22.20
2022-09-21T07:14:37.643Z,20.83
2022-09-21T07:17:08.566Z,17.73
2022-09-21T07:19:36.650Z,19.53
2022-09-21T07:22:03.707Z,13.63
2022-09-21T07:24:30.686Z,14.03
2022-09-21T07:26:58.214Z,20.20
2022-09-21T07:29:25.350Z,15.30
2022-09-21T07:31:52.411Z,18.87
2022-09-21T07:34:19.835Z,13.77
2022-09-21T07:36:46.779Z,11.55
2022-09-21T07:39:13.998Z,11.32
2022-09-21T07:41:41.057Z,16.05
2022-09-21T07:44:08.110Z,22.70
2022-09-21T07:46:37.130Z,14.70
2022-09-21T07:49:06.089Z,14.25
2022-09-21T07:51:33.295Z,19.95
2022-09-21T07:54:00.237Z,16.50
2022-09-21T07:56:27.229Z,14.18
2022-09-21T07:59:05.929Z,17.15
2022-09-21T08:01:39.565Z,14.80
2022-09-21T08:04:09.829Z,14.43
2022-09-21T08:06:40.161Z,12.68
2022-09-21T08:09:08.675Z,15.63
2022-09-21T08:11:37.455Z,20.02
2022-09-21T08:14:05.075Z,17.63
2022-09-21T08:16:34.169Z,15.65
2022-09-21T08:19:02.244Z,13.48
2022-09-21T08:21:29.280Z,14.50
2022-09-21T08:23:56.204Z,19.70
2022-09-21T08:26:23.919Z,17.73
2022-09-21T08:28:53.313Z,17.90
2022-09-21T08:31:23.167Z,15.50
2022-09-21T08:33:52.513Z,16.58
2022-09-21T08:36:19.856Z,16.05
2022-09-21T08:38:48.127Z,15.48
2022-09-21T08:41:32.947Z,16.48
2022-09-21T08:44:19.195Z,14.77
2022-09-21T08:47:01.501Z,18.80
2022-09-21T08:49:30.058Z,15.50
2022-09-21T08:52:02.045Z,16.90
2022-09-21T08:54:53.285Z,14.50
2022-09-21T08:57:23.408Z,16.65
2022-09-21T08:59:50.715Z,18.70
2022-09-21T09:02:59.741Z,15.50
2022-09-21T09:06:34.144Z,13.32
2022-09-21T09:09:55.211Z,13.63
2022-09-21T09:13:22.932Z,9.95
2022-09-21T09:16:15.715Z,12.85
2022-09-21T09:18:51.334Z,13.68
2022-09-21T09:21:55.239Z,15.00
2022-09-21T09:24:47.375Z,13.52
2022-09-21T09:27:28.794Z,14.35
2022-09-21T09:30:12.752Z,9.35
2022-09-21T09:33:13.943Z,11.38
2022-09-21T09:35:47.101Z,10.82
2022-09-21T09:38:32.952Z,7.15
2022-09-21T09:41:20.901Z,7.95
2022-09-21T09:44:47.101Z,7.40
2022-09-21T09:47:29.589Z,11.10
2022-09-21T09:50:06.475Z,8.80
2022-09-21T09:52:34.218Z,5.25
2022-09-21T09:55:30.266Z,7.03
2022-09-21T09:57:59.016Z,11.38
2022-09-21T10:00:25.995Z,8.73
2022-09-21T10:02:58.730Z,4.70
2022-09-21T10:05:33.096Z,12.68
2022-09-21T10:08:00.820Z,5.68
2022-09-21T10:10:34.007Z,5.78
2022-09-21T10:13:34.289Z,6.80
2022-09-21T10:16:18.165Z,7.07
2022-09-21T10:18:49.868Z,9.57
2022-09-21T10:21:40.160Z,6.95
2022-09-21T10:24:26.222Z,5.65
2022-09-21T10:27:02.401Z,9.35
2022-09-21T10:29:49.337Z,9.32
2022-09-21T10:32:19.978Z,8.30
2022-09-21T10:35:13.690Z,8.45
2022-09-21T10:37:54.471Z,8.77
2022-09-21T10:40:21.439Z,6.03
2022-09-21T10:42:55.346Z,8.27
2022-09-21T10:45:29.658Z,9.30
2022-09-21T10:48:15.375Z,6.93
2022-09-21T10:50:46.899Z,7.35
2022-09-21T10:53:36.892Z,9.80
2022-09-21T10:56:18.949Z,8.25
2022-09-21T10:59:27.635Z,6.30
2022-09-21T11:01:58.463Z,4.85
2022-09-21T11:04:45.755Z,8.93
2022-09-21T11:07:34.198Z,6.75
2022-09-21T11:10:19.712Z,6.32
2022-09-21T11:12:55.647Z,9.07
2022-09-21T11:15:39.192Z,8.63
2022-09-21T11:18:32.078Z,4.63
2022-09-21T11:21:17.014Z,6.93
2022-09-21T11:24:17.818Z,8.80
2022-09-21T11:27:04.166Z,6.78
2022-09-21T11:29:47.886Z,6.90
2022-09-21T11:32:20.186Z,7.25
2022-09-21T11:35:47.384Z,5.18
2022-09-21T11:38:50.839Z,6.07
2022-09-21T11:41:35.817Z,5.30
2022-09-21T11:44:27.217Z,4.82
2022-09-21T11:47:29.483Z,5.32
2022-09-21T11:50:38.051Z,4.85
2022-09-21T11:53:25.958Z,5.05
2022-09-21T11:56:29.642Z,4.85
2022-09-21T11:59:17.691Z,2.88
2022-09-21T12:02:22.104Z,4.55
2022-09-21T12:05:36.399Z,6.28
2022-09-21T12:08:49.878Z,4.90
2022-09-21T12:11:40.039Z,4.75
2022-09-21T12:14:28.360Z,5.85
2022-09-21T12:17:38.214Z,4.15
2022-09-21T12:20:38.568Z,5.85
2022-09-21T12:23:33.513Z,4.57
2022-09-21T12:26:02.458Z,4.88
2022-09-21T12:28:39.587Z,3.00
2022-09-21T12:31:42.579Z,6.32
2022-09-21T12:34:27.589Z,4.28
2022-09-21T12:37:17.514Z,3.38
2022-09-21T12:40:08.133Z,2.70
2022-09-21T12:42:51.169Z,2.67
2022-09-21T12:45:32.374Z,5.90
2022-09-21T12:48:22.346Z,8.10
2022-09-21T12:50:56.223Z,6.93
2022-09-21T12:53:27.509Z,3.78
2022-09-21T12:56:14.889Z,5.75
2022-09-21T12:59:11.329Z,3.65
2022-09-21T13:02:15.524Z,4.25
2022-09-21T13:05:09.436Z,3.67
2022-09-21T13:07:54.271Z,4.07
2022-09-21T13:10:39.971Z,7.13
2022-09-21T13:13:18.895Z,5.80
2022-09-21T13:15:48.740Z,3.60
2022-09-21T13:18:38.721Z,4.88
2022-09-21T13:21:26.544Z,6.22
2022-09-21T13:24:03.919Z,6.53
2022-09-21T13:26:35.859Z,5.65
2022-09-21T13:29:17.655Z,5.75
2022-09-21T13:32:11.883Z,3.90
2022-09-21T13:34:41.375Z,5.30
2022-09-21T13:37:25.911Z,2.53
2022-09-21T13:40:01.964Z,5.35
2022-09-21T13:42:34.959Z,4.63
2022-09-21T13:45:15.082Z,4.75
2022-09-21T13:47:47.653Z,3.83
2022-09-21T13:50:33.135Z,4.43
2022-09-21T13:53:07.534Z,4.13
2022-09-21T13:55:53.905Z,8.68
2022-09-21T13:58:42.193Z,9.88
2022-09-21T14:01:49.440Z,7.80
2022-09-21T14:04:40.387Z,11.30
2022-09-21T14:07:08.602Z,4.60
2022-09-21T14:09:54.222Z,5.80
2022-09-21T14:12:25.569Z,5.80
2022-09-21T14:15:33.208Z,4.57
2022-09-21T14:18:16.405Z,4.32
2022-09-21T14:21:09.291Z,8.07
2022-09-21T14:23:40.241Z,6.90
2022-09-21T14:26:42.460Z,7.20
2022-09-21T14:29:45.754Z,2.70
2022-09-21T14:32:23.611Z,6.80
2022-09-21T14:34:59.838Z,4.10
2022-09-21T14:37:41.659Z,2.78
2022-09-21T14:40:31.384Z,5.97
2022-09-21T14:43:03.446Z,2.95
2022-09-21T14:46:17.544Z,7.65
2022-09-21T14:48:50.404Z,3.80
2022-09-21T14:51:44.496Z,4.65
2022-09-21T14:54:48.770Z,3.67
2022-09-21T14:58:14.511Z,4.10
2022-09-21T15:00:49.907Z,4.30
2022-09-21T15:03:28.853Z,3.92
2022-09-21T15:06:00.384Z,7.32
2022-09-21T15:09:11.813Z,10.45
2022-09-21T15:11:47.079Z,5.03
2022-09-21T15:14:32.667Z,4.03
2022-09-21T15:16:59.704Z,6.03
2022-09-21T15:19:30.104Z,4.13
2022-09-21T15:22:21.399Z,6.93
2022-09-21T15:25:03.510Z,3.40
2022-09-21T15:27:33.381Z,4.43
2022-09-21T15:30:05.520Z,7.05
2022-09-21T15:32:38.409Z,3.70
2022-09-21T15:35:18.912Z,5.82
2022-09-21T15:37:47.322Z,5.70
2022-09-21T15:40:24.709Z,8.98
2022-09-21T15:43:11.428Z,5.70
2022-09-21T15:46:02.011Z,3.83
2022-09-21T15:48:35.485Z,4.13
2022-09-21T15:51:39.972Z,8.23
2022-09-21T15:54:49.036Z,4.25
2022-09-21T15:57:39.177Z,8.95
2022-09-21T16:00:34.241Z,3.97
2022-09-21T16:03:22.713Z,6.38
2022-09-21T16:05:56.098Z,5.75
2022-09-21T16:08:39.645Z,6.30
2022-09-21T16:11:33.369Z,5.88
2022-09-21T16:14:35.255Z,6.18
2022-09-21T16:17:38.612Z,3.30
2022-09-21T16:20:17.316Z,4.40
2022-09-21T16:22:48.421Z,97.10
2022-09-21T16:25:37.201Z,68.53
2022-09-21T16:28:26.484Z,25.83
2022-09-21T16:30:56.288Z,36.30
2022-09-21T16:33:47.359Z,16.05
2022-09-21T16:36:20.594Z,9.30
2022-09-21T16:38:47.877Z,8.32
2022-09-21T16:41:14.945Z,15.57
2022-09-21T16:43:43.796Z,9.55
2022-09-21T16:46:11.875Z,4.32
2022-09-21T16:48:39.955Z,9.48
2022-09-21T16:51:13.602Z,5.85
2022-09-21T16:53:41.015Z,6.40
2022-09-21T16:56:15.349Z,4.20
2022-09-21T16:58:44.170Z,5.03
2022-09-21T17:01:20.692Z,4.47
2022-09-21T17:03:48.213Z,5.05
2022-09-21T17:06:20.584Z,5.65
2022-09-21T17:08:48.987Z,4.72
2022-09-21T17:11:20.205Z,3.80
2022-09-21T17:13:50.757Z,10.15
2022-09-21T17:16:20.071Z,9.25
2022-09-21T17:18:48.794Z,5.90
2022-09-21T17:21:16.780Z,5.85
2022-09-21T17:23:43.811Z,3.92
2022-09-21T17:26:17.817Z,4.70
2022-09-21T17:28:45.488Z,7.20
2022-09-21T17:31:16.580Z,7.25
2022-09-21T17:33:44.883Z,5.57
2022-09-21T17:36:16.711Z,7.45
2022-09-21T17:38:44.960Z,5.50
2022-09-21T17:41:52.418Z,5.75
2022-09-21T17:44:45.516Z,4.07
2022-09-21T17:47:29.779Z,6.20
2022-09-21T17:50:16.249Z,3.37
2022-09-21T17:53:03.086Z,4.17
2022-09-21T17:55:30.996Z,6.57
2022-09-21T17:58:34.488Z,5.85
2022-09-21T18:01:12.859Z,4.17
2022-09-21T18:03:44.543Z,5.47
2022-09-21T18:06:13.209Z,8.60
2022-09-21T18:08:41.014Z,3.37
2022-09-21T18:11:49.146Z,7.17
2022-09-21T18:14:25.000Z,6.17
2022-09-21T18:17:20.024Z,5.27
2022-09-21T18:20:06.978Z,8.17
2022-09-21T18:22:39.026Z,5.80
2022-09-21T18:25:23.446Z,8.20
2022-09-21T18:27:51.810Z,9.93
2022-09-21T18:30:18.888Z,6.03
2022-09-21T18:33:23.842Z,8.57
2022-09-21T18:36:31.709Z,5.10
2022-09-21T18:39:29.099Z,6.63
2022-09-21T18:42:06.245Z,6.73
2022-09-21T18:44:48.119Z,7.40
2022-09-21T18:47:25.248Z,5.93
2022-09-21T18:50:31.929Z,8.20
2022-09-21T18:53:12.671Z,5.73
2022-09-21T18:55:40.523Z,6.03
2022-09-21T18:58:08.694Z,19.80
2022-09-21T19:00:36.221Z,21.43
2022-09-21T19:03:23.655Z,10.00
2022-09-21T19:06:28.874Z,9.67
2022-09-21T19:09:08.291Z,6.70
2022-09-21T19:11:50.925Z,8.13
2022-09-21T19:14:41.898Z,6.90
2022-09-21T19:17:29.973Z,10.60
2022-09-21T19:20:28.695Z,6.27
2022-09-21T19:23:30.091Z,5.43
2022-09-21T19:26:24.569Z,9.80
2022-09-21T19:29:32.418Z,7.20
2022-09-21T19:31:59.568Z,12.57
2022-09-21T19:34:28.111Z,6.67
2022-09-21T19:36:57.376Z,9.17
2022-09-21T19:39:24.933Z,5.77
2022-09-21T19:42:32.271Z,5.87
2022-09-21T19:45:29.983Z,11.73
2022-09-21T19:48:13.776Z,7.23
2022-09-21T19:50:57.243Z,7.83
2022-09-21T19:53:43.568Z,5.83
2022-09-21T19:56:34.191Z,8.77
2022-09-21T19:59:20.642Z,8.00
2022-09-21T20:01:55.657Z,6.93
2022-09-21T20:04:38.506Z,6.40
2022-09-21T20:07:56.818Z,6.57
2022-09-21T20:10:25.076Z,5.90
2022-09-21T20:13:20.911Z,9.40
2022-09-21T20:15:49.888Z,10.53
2022-09-21T20:18:46.668Z,8.43
2022-09-21T20:21:18.836Z,6.97
2022-09-21T20:23:51.471Z,11.03
2022-09-21T20:26:27.696Z,10.40
2022-09-21T20:28:55.396Z,10.97
2022-09-21T20:31:25.473Z,8.30
2022-09-21T20:33:52.756Z,8.67
2022-09-21T20:36:19.721Z,11.67
2022-09-21T20:38:47.077Z,12.17
2022-09-21T20:41:16.808Z,11.87
2022-09-21T20:43:43.942Z,7.00
2022-09-21T20:46:11.701Z,7.87
2022-09-21T20:48:40.108Z,9.77
2022-09-21T20:51:07.136Z,13.83
2022-09-21T20:53:34.650Z,11.47
2022-09-21T20:56:02.164Z,10.70
2022-09-21T20:58:30.259Z,11.67
2022-09-21T21:01:04.800Z,14.50
2022-09-21T21:03:31.793Z,13.63
2022-09-21T21:06:18.721Z,12.47
2022-09-21T21:08:46.328Z,10.03
2022-09-21T21:11:14.581Z,8.57
2022-09-21T21:13:42.596Z,11.87
2022-09-21T21:16:12.102Z,12.97
2022-09-21T21:18:40.975Z,13.27
2022-09-21T21:21:08.094Z,11.37
2022-09-21T21:23:55.016Z,9.50
2022-09-21T21:26:29.472Z,10.93
2022-09-21T21:29:09.440Z,8.63
2022-09-21T21:31:36.548Z,9.53
2022-09-21T21:34:03.599Z,10.83
2022-09-21T21:36:30.533Z,9.00
2022-09-21T21:38:57.661Z,9.43
2022-09-21T21:41:24.765Z,10.07
2022-09-21T21:43:51.733Z,9.83
2022-09-21T21:46:18.742Z,10.37
2022-09-21T21:48:45.855Z,9.23
2022-09-21T21:51:12.903Z,8.50
2022-09-21T21:53:40.603Z,9.13
2022-09-21T21:56:14.034Z,11.07
2022-09-21T21:58:42.131Z,12.23
2022-09-21T22:01:21.780Z,12.77
2022-09-21T22:03:55.008Z,8.10
2022-09-21T22:06:22.737Z,10.57
2022-09-21T22:08:50.525Z,8.23
2022-09-21T22:11:18.112Z,7.17
2022-09-21T22:13:46.105Z,8.93
2022-09-21T22:16:17.814Z,8.97
2022-09-21T22:18:46.248Z,13.90
2022-09-21T22:21:18.294Z,11.77
2022-09-21T22:23:45.221Z,10.70
2022-09-21T22:26:17.339Z,11.60
2022-09-21T22:28:48.775Z,8.00
2022-09-21T22:31:19.304Z,12.90
2022-09-21T22:33:46.920Z,8.90
2022-09-21T22:36:19.034Z,8.90
2022-09-21T22:38:47.431Z,8.20
2022-09-21T22:41:18.028Z,9.67
2022-09-21T22:43:47.114Z,11.53
2022-09-21T22:46:16.504Z,9.10
2022-09-21T22:48:44.424Z,7.87
2022-09-21T22:51:12.733Z,7.17
2022-09-21T22:53:39.730Z,9.87
2022-09-21T22:56:07.418Z,10.23
2022-09-21T22:58:37.900Z,10.23
2022-09-21T23:01:12.381Z,9.77
2022-09-21T23:03:41.829Z,9.63
2022-09-21T23:06:11.891Z,11.50
2022-09-21T23:08:39.244Z,10.57
2022-09-21T23:11:19.826Z,8.50
2022-09-21T23:13:47.123Z,7.97
2022-09-21T23:16:15.683Z,10.27
2022-09-21T23:18:43.929Z,11.77
2022-09-21T23:21:14.459Z,14.73
2022-09-21T23:23:42.240Z,7.90
2022-09-21T23:26:10.520Z,12.57
2022-09-21T23:28:39.379Z,7.20
2022-09-21T23:31:09.963Z,8.87
2022-09-21T23:33:44.025Z,10.83
2022-09-21T23:36:14.745Z,8.83
2022-09-21T23:38:42.251Z,12.83
2022-09-21T23:41:17.725Z,9.40
2022-09-21T23:43:45.500Z,8.97
2022-09-21T23:46:16.580Z,10.47
2022-09-21T23:48:43.954Z,9.60
2022-09-21T23:51:11.499Z,12.50
2022-09-21T23:53:39.441Z,10.53
2022-09-21T23:56:08.199Z,10.03
2022-09-21T23:58:35.330Z,9.97
